sensor_id;sensor_type;location;lat;lon;timestamp;temperature;humidity
52187;DHT22;38161;53.020;6.598;2023-06-26T00:00:12;20.90;99.90
52187;DHT22;38161;53.020;6.598;2023-06-26T00:02:39;20.90;99.90
52187;DHT22;38161;53.020;6.598;2023-06-26T00:05:05;20.90;99.90
52187;DHT22;38161;53.020;6.598;2023-06-26T00:07:31;20.80;99.90
52187;DHT22;38161;53.020;6.598;2023-06-26T00:09:59;20.80;99.90
52187;DHT22;38161;53.020;6.598;2023-06-26T00:12:26;20.80;99.90
52187;DHT22;38161;53.020;6.598;2023-06-26T00:14:52;20.80;99.90
52187;DHT22;38161;53.020;6.598;2023-06-26T00:17:18;20.70;99.90
52187;DHT22;38161;53.020;6.598;2023-06-26T00:19:44;20.70;99.90
52187;DHT22;38161;53.020;6.598;2023-06-26T00:22:11;20.80;99.90
52187;DHT22;38161;53.020;6.598;2023-06-26T00:24:43;20.80;99.90
52187;DHT22;38161;53.020;6.598;2023-06-26T00:27:12;20.80;99.90
52187;DHT22;38161;53.020;6.598;2023-06-26T00:29:37;20.80;99.90
52187;DHT22;38161;53.020;6.598;2023-06-26T00:32:04;20.80;99.90
52187;DHT22;38161;53.020;6.598;2023-06-26T00:34:30;20.80;99.90
52187;DHT22;38161;53.020;6.598;2023-06-26T00:36:56;20.80;99.90
52187;DHT22;38161;53.020;6.598;2023-06-26T00:39:22;20.80;99.90
52187;DHT22;38161;53.020;6.598;2023-06-26T00:41:51;20.70;99.90
52187;DHT22;38161;53.020;6.598;2023-06-26T00:44:19;20.70;99.90
52187;DHT22;38161;53.020;6.598;2023-06-26T00:46:45;20.70;99.90
52187;DHT22;38161;53.020;6.598;2023-06-26T00:49:11;20.70;99.90
52187;DHT22;38161;53.020;6.598;2023-06-26T00:51:38;20.60;99.90
52187;DHT22;38161;53.020;6.598;2023-06-26T00:54:04;20.70;99.90
52187;DHT22;38161;53.020;6.598;2023-06-26T00:56:31;20.70;99.90
52187;DHT22;38161;53.020;6.598;2023-06-26T00:58:58;20.80;99.90
52187;DHT22;38161;53.020;6.598;2023-06-26T01:01:23;20.80;99.90
52187;DHT22;38161;53.020;6.598;2023-06-26T01:03:51;20.80;99.90
52187;DHT22;38161;53.020;6.598;2023-06-26T01:06:20;20.80;99.90
52187;DHT22;38161;53.020;6.598;2023-06-26T01:08:48;20.70;99.90
52187;DHT22;38161;53.020;6.598;2023-06-26T01:11:16;20.70;99.90
52187;DHT22;38161;53.020;6.598;2023-06-26T01:13:46;20.70;99.90
52187;DHT22;38161;53.020;6.598;2023-06-26T01:16:12;20.70;99.90
52187;DHT22;38161;53.020;6.598;2023-06-26T01:18:41;20.70;99.90
52187;DHT22;38161;53.020;6.598;2023-06-26T01:21:09;20.80;99.90
52187;DHT22;38161;53.020;6.598;2023-06-26T01:24:07;20.80;99.90
52187;DHT22;38161;53.020;6.598;2023-06-26T01:27:21;20.80;99.90
52187;DHT22;38161;53.020;6.598;2023-06-26T01:29:50;20.80;99.90
52187;DHT22;38161;53.020;6.598;2023-06-26T01:32:21;20.80;99.90
52187;DHT22;38161;53.020;6.598;2023-06-26T01:34:52;20.80;99.90
52187;DHT22;38161;53.020;6.598;2023-06-26T01:37:18;20.80;99.90
52187;DHT22;38161;53.020;6.598;2023-06-26T01:39:44;20.80;99.90
52187;DHT22;38161;53.020;6.598;2023-06-26T01:42:10;20.90;99.90
52187;DHT22;38161;53.020;6.598;2023-06-26T01:44:44;20.80;99.90
52187;DHT22;38161;53.020;6.598;2023-06-26T01:47:32;20.80;99.90
52187;DHT22;38161;53.020;6.598;2023-06-26T01:53:25;20.80;99.90
52187;DHT22;38161;53.020;6.598;2023-06-26T01:56:02;20.80;99.90
52187;DHT22;38161;53.020;6.598;2023-06-26T01:58:32;20.80;99.90
52187;DHT22;38161;53.020;6.598;2023-06-26T02:00:59;20.80;99.90
52187;DHT22;38161;53.020;6.598;2023-06-26T02:03:26;20.80;99.90
52187;DHT22;38161;53.020;6.598;2023-06-26T02:05:53;20.80;99.90
52187;DHT22;38161;53.020;6.598;2023-06-26T02:08:21;20.80;99.90
52187;DHT22;38161;53.020;6.598;2023-06-26T02:10:58;20.80;99.90
52187;DHT22;38161;53.020;6.598;2023-06-26T02:13:25;20.80;99.90
52187;DHT22;38161;53.020;6.598;2023-06-26T02:15:51;20.80;99.90
52187;DHT22;38161;53.020;6.598;2023-06-26T02:19:12;20.80;99.90
52187;DHT22;38161;53.020;6.598;2023-06-26T02:21:32;20.80;99.90
52187;DHT22;38161;53.020;6.598;2023-06-26T02:24:02;20.90;99.90
52187;DHT22;38161;53.020;6.598;2023-06-26T02:26:29;20.90;99.90
52187;DHT22;38161;53.020;6.598;2023-06-26T02:28:56;20.90;99.90
52187;DHT22;38161;53.020;6.598;2023-06-26T02:31:23;21.00;99.90
52187;DHT22;38161;53.020;6.598;2023-06-26T02:34:10;21.00;99.90
52187;DHT22;38161;53.020;6.598;2023-06-26T02:36:38;20.90;99.90
52187;DHT22;38161;53.020;6.598;2023-06-26T02:39:04;20.90;99.90
52187;DHT22;38161;53.020;6.598;2023-06-26T02:41:35;20.90;99.90
52187;DHT22;38161;53.020;6.598;2023-06-26T02:44:01;20.90;99.90
52187;DHT22;38161;53.020;6.598;2023-06-26T02:46:28;20.90;99.90
52187;DHT22;38161;53.020;6.598;2023-06-26T02:48:54;21.00;99.90
52187;DHT22;38161;53.020;6.598;2023-06-26T02:51:21;21.00;99.90
52187;DHT22;38161;53.020;6.598;2023-06-26T02:54:03;21.00;99.90
52187;DHT22;38161;53.020;6.598;2023-06-26T02:56:29;21.00;99.90
52187;DHT22;38161;53.020;6.598;2023-06-26T02:58:58;21.00;99.90
52187;DHT22;38161;53.020;6.598;2023-06-26T03:01:24;21.00;99.90
52187;DHT22;38161;53.020;6.598;2023-06-26T03:03:51;21.00;99.90
52187;DHT22;38161;53.020;6.598;2023-06-26T03:06:17;21.00;99.90
52187;DHT22;38161;53.020;6.598;2023-06-26T03:08:43;20.90;99.90
52187;DHT22;38161;53.020;6.598;2023-06-26T03:11:09;20.90;99.90
52187;DHT22;38161;53.020;6.598;2023-06-26T03:13:36;20.90;99.90
52187;DHT22;38161;53.020;6.598;2023-06-26T03:16:03;20.90;99.90
52187;DHT22;38161;53.020;6.598;2023-06-26T03:18:31;20.90;99.90
52187;DHT22;38161;53.020;6.598;2023-06-26T03:21:02;20.90;99.90
52187;DHT22;38161;53.020;6.598;2023-06-26T03:23:41;20.90;99.90
52187;DHT22;38161;53.020;6.598;2023-06-26T03:26:08;20.90;99.90
52187;DHT22;38161;53.020;6.598;2023-06-26T03:28:41;20.90;99.90
52187;DHT22;38161;53.020;6.598;2023-06-26T03:31:10;20.90;99.90
52187;DHT22;38161;53.020;6.598;2023-06-26T03:33:37;20.90;99.90
52187;DHT22;38161;53.020;6.598;2023-06-26T03:36:05;20.90;99.90
52187;DHT22;38161;53.020;6.598;2023-06-26T03:38:32;20.90;99.90
52187;DHT22;38161;53.020;6.598;2023-06-26T03:41:12;20.90;99.90
52187;DHT22;38161;53.020;6.598;2023-06-26T03:43:38;20.90;99.90
52187;DHT22;38161;53.020;6.598;2023-06-26T03:46:05;20.90;99.90
52187;DHT22;38161;53.020;6.598;2023-06-26T03:48:37;20.90;99.90
52187;DHT22;38161;53.020;6.598;2023-06-26T03:51:03;21.00;99.90
52187;DHT22;38161;53.020;6.598;2023-06-26T03:53:37;21.00;99.90
52187;DHT22;38161;53.020;6.598;2023-06-26T03:56:10;21.00;99.90
52187;DHT22;38161;53.020;6.598;2023-06-26T03:58:38;21.00;99.90
52187;DHT22;38161;53.020;6.598;2023-06-26T04:01:14;21.00;99.90
52187;DHT22;38161;53.020;6.598;2023-06-26T04:03:44;21.00;99.90
52187;DHT22;38161;53.020;6.598;2023-06-26T04:06:13;21.00;99.90
52187;DHT22;38161;53.020;6.598;2023-06-26T04:08:43;21.10;99.90
52187;DHT22;38161;53.020;6.598;2023-06-26T04:11:11;21.10;99.90
52187;DHT22;38161;53.020;6.598;2023-06-26T04:13:44;21.10;99.90
52187;DHT22;38161;53.020;6.598;2023-06-26T04:16:10;21.00;99.90
52187;DHT22;38161;53.020;6.598;2023-06-26T04:18:38;21.00;99.90
52187;DHT22;38161;53.020;6.598;2023-06-26T04:21:15;21.10;99.90
52187;DHT22;38161;53.020;6.598;2023-06-26T04:23:43;21.10;99.90
52187;DHT22;38161;53.020;6.598;2023-06-26T04:26:10;21.10;99.90
52187;DHT22;38161;53.020;6.598;2023-06-26T04:28:45;21.10;99.90
52187;DHT22;38161;53.020;6.598;2023-06-26T04:31:18;21.10;99.90
52187;DHT22;38161;53.020;6.598;2023-06-26T04:33:52;21.10;99.90
52187;DHT22;38161;53.020;6.598;2023-06-26T04:36:24;21.10;99.90
52187;DHT22;38161;53.020;6.598;2023-06-26T04:38:55;21.20;99.90
52187;DHT22;38161;53.020;6.598;2023-06-26T04:41:22;21.20;99.90
52187;DHT22;38161;53.020;6.598;2023-06-26T04:43:52;21.20;99.90
52187;DHT22;38161;53.020;6.598;2023-06-26T04:46:28;21.20;99.90
52187;DHT22;38161;53.020;6.598;2023-06-26T04:49:04;21.30;99.90
52187;DHT22;38161;53.020;6.598;2023-06-26T04:51:31;21.30;99.90
52187;DHT22;38161;53.020;6.598;2023-06-26T04:53:58;21.40;99.90
52187;DHT22;38161;53.020;6.598;2023-06-26T04:56:26;21.40;99.90
52187;DHT22;38161;53.020;6.598;2023-06-26T04:58:53;21.40;99.90
52187;DHT22;38161;53.020;6.598;2023-06-26T05:01:25;21.40;99.90
52187;DHT22;38161;53.020;6.598;2023-06-26T05:03:55;21.40;99.90
52187;DHT22;38161;53.020;6.598;2023-06-26T05:06:25;21.50;99.90
52187;DHT22;38161;53.020;6.598;2023-06-26T05:08:52;21.50;99.90
52187;DHT22;38161;53.020;6.598;2023-06-26T05:11:19;21.40;99.90
52187;DHT22;38161;53.020;6.598;2023-06-26T05:13:47;21.30;99.90
52187;DHT22;38161;53.020;6.598;2023-06-26T05:16:15;21.30;99.90
52187;DHT22;38161;53.020;6.598;2023-06-26T05:18:40;21.30;99.90
52187;DHT22;38161;53.020;6.598;2023-06-26T05:21:07;21.30;99.90
52187;DHT22;38161;53.020;6.598;2023-06-26T05:23:39;21.30;99.90
52187;DHT22;38161;53.020;6.598;2023-06-26T05:26:06;21.30;99.90
52187;DHT22;38161;53.020;6.598;2023-06-26T05:28:33;21.30;99.90
52187;DHT22;38161;53.020;6.598;2023-06-26T05:31:01;21.40;99.90
52187;DHT22;38161;53.020;6.598;2023-06-26T05:33:28;21.30;99.90
52187;DHT22;38161;53.020;6.598;2023-06-26T05:35:55;21.30;99.90
52187;DHT22;38161;53.020;6.598;2023-06-26T05:38:21;21.30;99.90
52187;DHT22;38161;53.020;6.598;2023-06-26T05:40:53;21.20;99.90
52187;DHT22;38161;53.020;6.598;2023-06-26T05:43:20;21.10;99.90
52187;DHT22;38161;53.020;6.598;2023-06-26T05:45:48;21.10;99.90
52187;DHT22;38161;53.020;6.598;2023-06-26T05:48:18;21.10;99.90
52187;DHT22;38161;53.020;6.598;2023-06-26T05:51:00;21.10;99.90
52187;DHT22;38161;53.020;6.598;2023-06-26T05:53:27;21.20;99.90
52187;DHT22;38161;53.020;6.598;2023-06-26T05:55:53;21.10;99.90
52187;DHT22;38161;53.020;6.598;2023-06-26T05:58:20;21.10;99.90
52187;DHT22;38161;53.020;6.598;2023-06-26T06:00:48;21.10;99.90
52187;DHT22;38161;53.020;6.598;2023-06-26T06:03:17;21.10;99.90
52187;DHT22;38161;53.020;6.598;2023-06-26T06:05:54;21.10;99.90
52187;DHT22;38161;53.020;6.598;2023-06-26T06:08:20;21.10;99.90
52187;DHT22;38161;53.020;6.598;2023-06-26T06:10:49;21.10;99.90
52187;DHT22;38161;53.020;6.598;2023-06-26T06:13:15;21.10;99.90
52187;DHT22;38161;53.020;6.598;2023-06-26T06:15:45;21.10;99.90
52187;DHT22;38161;53.020;6.598;2023-06-26T06:18:12;21.20;99.90
52187;DHT22;38161;53.020;6.598;2023-06-26T06:20:38;21.20;99.90
52187;DHT22;38161;53.020;6.598;2023-06-26T06:23:04;21.20;99.90
52187;DHT22;38161;53.020;6.598;2023-06-26T06:25:30;21.20;99.90
52187;DHT22;38161;53.020;6.598;2023-06-26T06:27:57;21.30;99.90
52187;DHT22;38161;53.020;6.598;2023-06-26T06:30:23;21.40;99.90
52187;DHT22;38161;53.020;6.598;2023-06-26T06:32:49;21.40;99.90
52187;DHT22;38161;53.020;6.598;2023-06-26T06:35:19;21.40;99.90
52187;DHT22;38161;53.020;6.598;2023-06-26T06:37:53;21.40;99.90
52187;DHT22;38161;53.020;6.598;2023-06-26T06:40:19;21.50;99.90
52187;DHT22;38161;53.020;6.598;2023-06-26T06:42:48;21.50;99.90
52187;DHT22;38161;53.020;6.598;2023-06-26T06:45:22;21.60;99.90
52187;DHT22;38161;53.020;6.598;2023-06-26T06:47:53;21.70;99.90
52187;DHT22;38161;53.020;6.598;2023-06-26T06:50:30;21.70;99.90
52187;DHT22;38161;53.020;6.598;2023-06-26T06:52:56;21.80;99.90
52187;DHT22;38161;53.020;6.598;2023-06-26T06:55:34;21.80;99.90
52187;DHT22;38161;53.020;6.598;2023-06-26T06:58:00;21.90;99.90
52187;DHT22;38161;53.020;6.598;2023-06-26T07:00:26;22.00;99.90
52187;DHT22;38161;53.020;6.598;2023-06-26T07:02:53;22.00;99.90
52187;DHT22;38161;53.020;6.598;2023-06-26T07:05:20;21.90;99.90
52187;DHT22;38161;53.020;6.598;2023-06-26T07:07:46;22.00;99.90
52187;DHT22;38161;53.020;6.598;2023-06-26T07:10:12;22.10;99.90
52187;DHT22;38161;53.020;6.598;2023-06-26T07:12:42;22.10;99.90
52187;DHT22;38161;53.020;6.598;2023-06-26T07:15:23;22.10;99.90
52187;DHT22;38161;53.020;6.598;2023-06-26T07:17:51;22.20;99.90
52187;DHT22;38161;53.020;6.598;2023-06-26T07:20:17;22.30;99.90
52187;DHT22;38161;53.020;6.598;2023-06-26T07:22:44;22.30;99.90
52187;DHT22;38161;53.020;6.598;2023-06-26T07:25:16;22.40;99.90
52187;DHT22;38161;53.020;6.598;2023-06-26T07:27:47;22.50;99.90
52187;DHT22;38161;53.020;6.598;2023-06-26T07:30:15;22.50;99.90
52187;DHT22;38161;53.020;6.598;2023-06-26T07:32:47;22.50;99.90
52187;DHT22;38161;53.020;6.598;2023-06-26T07:35:13;22.60;99.90
52187;DHT22;38161;53.020;6.598;2023-06-26T07:37:39;22.70;99.90
52187;DHT22;38161;53.020;6.598;2023-06-26T07:40:06;22.70;99.90
52187;DHT22;38161;53.020;6.598;2023-06-26T07:42:32;22.70;99.90
52187;DHT22;38161;53.020;6.598;2023-06-26T07:44:58;22.70;99.90
52187;DHT22;38161;53.020;6.598;2023-06-26T07:47:24;22.80;99.90
52187;DHT22;38161;53.020;6.598;2023-06-26T07:49:50;22.90;99.90
52187;DHT22;38161;53.020;6.598;2023-06-26T07:52:18;22.90;99.90
52187;DHT22;38161;53.020;6.598;2023-06-26T07:54:44;23.00;99.90
52187;DHT22;38161;53.020;6.598;2023-06-26T07:57:11;23.00;99.90
52187;DHT22;38161;53.020;6.598;2023-06-26T07:59:38;23.20;99.90
52187;DHT22;38161;53.020;6.598;2023-06-26T08:02:06;23.20;99.90
52187;DHT22;38161;53.020;6.598;2023-06-26T08:04:32;23.10;99.90
52187;DHT22;38161;53.020;6.598;2023-06-26T08:07:00;23.00;99.90
52187;DHT22;38161;53.020;6.598;2023-06-26T08:09:30;23.00;99.90
52187;DHT22;38161;53.020;6.598;2023-06-26T08:12:00;22.90;99.90
52187;DHT22;38161;53.020;6.598;2023-06-26T08:14:27;22.90;99.90
52187;DHT22;38161;53.020;6.598;2023-06-26T08:16:55;22.70;99.90
52187;DHT22;38161;53.020;6.598;2023-06-26T08:19:25;22.70;99.90
52187;DHT22;38161;53.020;6.598;2023-06-26T08:21:51;22.70;99.90
52187;DHT22;38161;53.020;6.598;2023-06-26T08:24:20;22.70;99.90
52187;DHT22;38161;53.020;6.598;2023-06-26T08:26:50;22.70;99.90
52187;DHT22;38161;53.020;6.598;2023-06-26T08:29:19;22.70;99.90
52187;DHT22;38161;53.020;6.598;2023-06-26T08:31:50;22.80;99.90
52187;DHT22;38161;53.020;6.598;2023-06-26T08:34:16;23.00;99.90
52187;DHT22;38161;53.020;6.598;2023-06-26T08:36:43;23.00;99.90
52187;DHT22;38161;53.020;6.598;2023-06-26T08:39:12;23.00;99.90
52187;DHT22;38161;53.020;6.598;2023-06-26T08:41:39;22.90;99.90
52187;DHT22;38161;53.020;6.598;2023-06-26T08:44:05;23.00;99.90
52187;DHT22;38161;53.020;6.598;2023-06-26T08:46:35;23.10;99.90
52187;DHT22;38161;53.020;6.598;2023-06-26T08:49:18;23.10;99.90
52187;DHT22;38161;53.020;6.598;2023-06-26T08:51:51;23.30;99.90
52187;DHT22;38161;53.020;6.598;2023-06-26T08:54:22;23.30;99.90
52187;DHT22;38161;53.020;6.598;2023-06-26T08:56:56;23.20;99.90
52187;DHT22;38161;53.020;6.598;2023-06-26T08:59:23;23.20;99.90
52187;DHT22;38161;53.020;6.598;2023-06-26T09:01:49;23.10;99.90
52187;DHT22;38161;53.020;6.598;2023-06-26T09:04:15;23.00;99.90
52187;DHT22;38161;53.020;6.598;2023-06-26T09:06:42;23.10;99.90
52187;DHT22;38161;53.020;6.598;2023-06-26T09:09:08;23.20;99.90
52187;DHT22;38161;53.020;6.598;2023-06-26T09:11:34;23.20;99.90
52187;DHT22;38161;53.020;6.598;2023-06-26T09:14:03;23.10;99.90
52187;DHT22;38161;53.020;6.598;2023-06-26T09:16:39;23.10;99.90
52187;DHT22;38161;53.020;6.598;2023-06-26T09:19:10;23.10;99.90
52187;DHT22;38161;53.020;6.598;2023-06-26T09:21:41;23.30;99.90
52187;DHT22;38161;53.020;6.598;2023-06-26T09:24:09;23.50;99.90
52187;DHT22;38161;53.020;6.598;2023-06-26T09:26:40;23.70;99.90
52187;DHT22;38161;53.020;6.598;2023-06-26T09:29:07;23.70;99.90
52187;DHT22;38161;53.020;6.598;2023-06-26T09:31:35;23.70;99.90
52187;DHT22;38161;53.020;6.598;2023-06-26T09:34:05;23.80;99.90
52187;DHT22;38161;53.020;6.598;2023-06-26T09:36:33;23.90;99.90
52187;DHT22;38161;53.020;6.598;2023-06-26T09:39:07;23.90;99.90
52187;DHT22;38161;53.020;6.598;2023-06-26T09:41:37;23.90;99.90
52187;DHT22;38161;53.020;6.598;2023-06-26T09:44:07;24.10;99.90
52187;DHT22;38161;53.020;6.598;2023-06-26T09:46:37;24.00;99.90
52187;DHT22;38161;53.020;6.598;2023-06-26T09:49:04;23.90;99.90
52187;DHT22;38161;53.020;6.598;2023-06-26T09:51:32;24.00;99.90
52187;DHT22;38161;53.020;6.598;2023-06-26T09:54:01;24.00;99.90
52187;DHT22;38161;53.020;6.598;2023-06-26T09:56:28;24.20;99.90
52187;DHT22;38161;53.020;6.598;2023-06-26T09:59:05;24.30;99.90
52187;DHT22;38161;53.020;6.598;2023-06-26T10:01:32;24.50;99.90
52187;DHT22;38161;53.020;6.598;2023-06-26T10:03:58;24.60;99.90
52187;DHT22;38161;53.020;6.598;2023-06-26T10:06:27;24.80;99.90
52187;DHT22;38161;53.020;6.598;2023-06-26T10:08:56;24.90;99.90
52187;DHT22;38161;53.020;6.598;2023-06-26T10:11:26;25.00;99.90
52187;DHT22;38161;53.020;6.598;2023-06-26T10:13:55;24.90;99.90
52187;DHT22;38161;53.020;6.598;2023-06-26T10:16:25;24.80;99.90
52187;DHT22;38161;53.020;6.598;2023-06-26T10:18:58;24.70;99.90
52187;DHT22;38161;53.020;6.598;2023-06-26T10:21:35;24.40;99.90
52187;DHT22;38161;53.020;6.598;2023-06-26T10:24:06;24.30;99.90
52187;DHT22;38161;53.020;6.598;2023-06-26T10:26:38;24.30;99.90
52187;DHT22;38161;53.020;6.598;2023-06-26T10:29:15;24.40;99.90
52187;DHT22;38161;53.020;6.598;2023-06-26T10:31:45;24.50;99.90
52187;DHT22;38161;53.020;6.598;2023-06-26T10:34:15;24.70;99.90
52187;DHT22;38161;53.020;6.598;2023-06-26T10:36:48;24.90;99.90
52187;DHT22;38161;53.020;6.598;2023-06-26T10:39:27;25.00;99.90
52187;DHT22;38161;53.020;6.598;2023-06-26T10:42:16;25.00;99.90
52187;DHT22;38161;53.020;6.598;2023-06-26T10:44:44;25.10;99.60
52187;DHT22;38161;53.020;6.598;2023-06-26T10:47:11;25.30;99.90
52187;DHT22;38161;53.020;6.598;2023-06-26T10:49:52;25.30;99.90
52187;DHT22;38161;53.020;6.598;2023-06-26T10:52:26;25.20;99.70
52187;DHT22;38161;53.020;6.598;2023-06-26T10:54:54;25.00;99.80
52187;DHT22;38161;53.020;6.598;2023-06-26T10:57:25;24.90;99.90
52187;DHT22;38161;53.020;6.598;2023-06-26T11:00:14;24.90;99.80
52187;DHT22;38161;53.020;6.598;2023-06-26T11:02:54;25.00;99.90
52187;DHT22;38161;53.020;6.598;2023-06-26T11:05:33;25.10;99.80
52187;DHT22;38161;53.020;6.598;2023-06-26T11:08:09;25.10;99.80
52187;DHT22;38161;53.020;6.598;2023-06-26T11:10:53;25.00;99.70
52187;DHT22;38161;53.020;6.598;2023-06-26T11:13:35;24.90;99.80
52187;DHT22;38161;53.020;6.598;2023-06-26T11:16:02;24.90;99.90
52187;DHT22;38161;53.020;6.598;2023-06-26T11:18:28;24.70;99.90
52187;DHT22;38161;53.020;6.598;2023-06-26T11:21:03;24.70;99.90
52187;DHT22;38161;53.020;6.598;2023-06-26T11:23:49;24.50;99.90
52187;DHT22;38161;53.020;6.598;2023-06-26T11:26:20;24.50;99.90
52187;DHT22;38161;53.020;6.598;2023-06-26T11:28:55;24.40;99.90
52187;DHT22;38161;53.020;6.598;2023-06-26T11:31:29;24.60;99.90
52187;DHT22;38161;53.020;6.598;2023-06-26T11:34:00;24.60;99.30
52187;DHT22;38161;53.020;6.598;2023-06-26T11:36:27;24.70;99.90
52187;DHT22;38161;53.020;6.598;2023-06-26T11:39:02;24.70;99.90
52187;DHT22;38161;53.020;6.598;2023-06-26T11:41:39;24.70;99.40
52187;DHT22;38161;53.020;6.598;2023-06-26T11:44:07;24.80;99.20
52187;DHT22;38161;53.020;6.598;2023-06-26T11:46:35;24.70;99.00
52187;DHT22;38161;53.020;6.598;2023-06-26T11:49:08;24.80;98.50
52187;DHT22;38161;53.020;6.598;2023-06-26T11:51:34;24.90;98.70
52187;DHT22;38161;53.020;6.598;2023-06-26T11:54:03;24.90;98.70
52187;DHT22;38161;53.020;6.598;2023-06-26T11:56:30;24.80;98.60
52187;DHT22;38161;53.020;6.598;2023-06-26T11:58:58;24.70;98.30
52187;DHT22;38161;53.020;6.598;2023-06-26T12:01:36;24.70;98.10
52187;DHT22;38161;53.020;6.598;2023-06-26T12:04:04;24.70;97.90
52187;DHT22;38161;53.020;6.598;2023-06-26T12:06:32;24.70;98.20
52187;DHT22;38161;53.020;6.598;2023-06-26T12:09:04;24.70;98.20
52187;DHT22;38161;53.020;6.598;2023-06-26T12:11:43;24.70;98.00
52187;DHT22;38161;53.020;6.598;2023-06-26T12:14:11;24.80;98.10
52187;DHT22;38161;53.020;6.598;2023-06-26T12:16:37;24.90;98.20
52187;DHT22;38161;53.020;6.598;2023-06-26T12:19:06;25.00;98.00
52187;DHT22;38161;53.020;6.598;2023-06-26T12:24:07;25.10;97.20
52187;DHT22;38161;53.020;6.598;2023-06-26T12:26:34;25.00;96.30
52187;DHT22;38161;53.020;6.598;2023-06-26T12:29:17;25.00;96.20
52187;DHT22;38161;53.020;6.598;2023-06-26T12:31:45;25.10;96.40
52187;DHT22;38161;53.020;6.598;2023-06-26T12:34:15;25.20;96.80
52187;DHT22;38161;53.020;6.598;2023-06-26T12:36:47;25.30;96.20
52187;DHT22;38161;53.020;6.598;2023-06-26T12:39:23;25.30;95.30
52187;DHT22;38161;53.020;6.598;2023-06-26T12:41:57;25.40;95.60
52187;DHT22;38161;53.020;6.598;2023-06-26T12:44:30;25.40;95.90
52187;DHT22;38161;53.020;6.598;2023-06-26T12:47:02;25.30;95.50
52187;DHT22;38161;53.020;6.598;2023-06-26T12:49:39;25.20;95.90
52187;DHT22;38161;53.020;6.598;2023-06-26T12:52:11;25.10;95.80
52187;DHT22;38161;53.020;6.598;2023-06-26T12:54:40;25.00;95.90
52187;DHT22;38161;53.020;6.598;2023-06-26T12:57:06;25.00;95.90
52187;DHT22;38161;53.020;6.598;2023-06-26T12:59:37;24.90;95.60
52187;DHT22;38161;53.020;6.598;2023-06-26T13:02:05;24.80;95.40
52187;DHT22;38161;53.020;6.598;2023-06-26T13:04:35;24.70;95.90
52187;DHT22;38161;53.020;6.598;2023-06-26T13:07:02;24.50;96.10
52187;DHT22;38161;53.020;6.598;2023-06-26T13:09:33;24.50;96.10
52187;DHT22;38161;53.020;6.598;2023-06-26T13:12:01;24.30;96.30
52187;DHT22;38161;53.020;6.598;2023-06-26T13:14:30;24.30;96.20
52187;DHT22;38161;53.020;6.598;2023-06-26T13:16:58;24.30;96.40
52187;DHT22;38161;53.020;6.598;2023-06-26T13:19:27;24.30;96.20
52187;DHT22;38161;53.020;6.598;2023-06-26T13:21:57;24.20;96.20
52187;DHT22;38161;53.020;6.598;2023-06-26T13:24:43;24.20;96.20
52187;DHT22;38161;53.020;6.598;2023-06-26T13:27:09;24.20;96.30
52187;DHT22;38161;53.020;6.598;2023-06-26T13:29:35;24.30;96.40
52187;DHT22;38161;53.020;6.598;2023-06-26T13:32:02;24.30;96.20
52187;DHT22;38161;53.020;6.598;2023-06-26T13:34:43;24.40;96.30
52187;DHT22;38161;53.020;6.598;2023-06-26T13:37:11;24.30;96.00
52187;DHT22;38161;53.020;6.598;2023-06-26T13:39:37;24.30;95.80
52187;DHT22;38161;53.020;6.598;2023-06-26T13:42:04;24.40;95.80
52187;DHT22;38161;53.020;6.598;2023-06-26T13:44:30;24.40;96.00
52187;DHT22;38161;53.020;6.598;2023-06-26T13:46:58;24.50;96.30
52187;DHT22;38161;53.020;6.598;2023-06-26T13:49:29;24.50;96.10
52187;DHT22;38161;53.020;6.598;2023-06-26T13:51:55;24.50;96.30
52187;DHT22;38161;53.020;6.598;2023-06-26T13:54:23;24.50;96.50
52187;DHT22;38161;53.020;6.598;2023-06-26T13:56:55;24.40;96.40
52187;DHT22;38161;53.020;6.598;2023-06-26T13:59:23;24.30;96.20
52187;DHT22;38161;53.020;6.598;2023-06-26T14:01:53;24.30;96.10
52187;DHT22;38161;53.020;6.598;2023-06-26T14:04:25;24.20;96.10
52187;DHT22;38161;53.020;6.598;2023-06-26T14:06:52;24.20;95.80
52187;DHT22;38161;53.020;6.598;2023-06-26T14:09:18;24.20;95.90
52187;DHT22;38161;53.020;6.598;2023-06-26T14:12:04;24.20;95.90
52187;DHT22;38161;53.020;6.598;2023-06-26T14:14:33;24.10;95.60
52187;DHT22;38161;53.020;6.598;2023-06-26T14:17:00;24.10;95.60
52187;DHT22;38161;53.020;6.598;2023-06-26T14:19:27;24.10;95.70
52187;DHT22;38161;53.020;6.598;2023-06-26T14:21:53;24.20;95.50
52187;DHT22;38161;53.020;6.598;2023-06-26T14:24:19;24.20;95.40
52187;DHT22;38161;53.020;6.598;2023-06-26T14:26:46;24.20;94.70
52187;DHT22;38161;53.020;6.598;2023-06-26T14:29:13;24.10;95.50
52187;DHT22;38161;53.020;6.598;2023-06-26T14:31:46;24.10;95.40
52187;DHT22;38161;53.020;6.598;2023-06-26T14:34:15;24.30;95.50
52187;DHT22;38161;53.020;6.598;2023-06-26T14:36:40;24.20;95.40
52187;DHT22;38161;53.020;6.598;2023-06-26T14:39:06;24.10;94.90
52187;DHT22;38161;53.020;6.598;2023-06-26T14:41:32;23.90;94.80
52187;DHT22;38161;53.020;6.598;2023-06-26T14:44:01;23.80;94.00
52187;DHT22;38161;53.020;6.598;2023-06-26T14:46:30;23.80;94.90
52187;DHT22;38161;53.020;6.598;2023-06-26T14:48:56;23.90;95.00
52187;DHT22;38161;53.020;6.598;2023-06-26T14:51:22;23.90;94.90
52187;DHT22;38161;53.020;6.598;2023-06-26T14:53:48;23.90;94.50
52187;DHT22;38161;53.020;6.598;2023-06-26T14:56:14;24.00;94.60
52187;DHT22;38161;53.020;6.598;2023-06-26T14:58:42;24.10;94.50
52187;DHT22;38161;53.020;6.598;2023-06-26T15:01:09;23.90;94.90
52187;DHT22;38161;53.020;6.598;2023-06-26T15:03:35;23.90;95.10
52187;DHT22;38161;53.020;6.598;2023-06-26T15:06:01;23.90;94.60
52187;DHT22;38161;53.020;6.598;2023-06-26T15:08:27;24.00;94.40
52187;DHT22;38161;53.020;6.598;2023-06-26T15:10:53;24.00;94.00
52187;DHT22;38161;53.020;6.598;2023-06-26T15:13:19;24.00;94.40
52187;DHT22;38161;53.020;6.598;2023-06-26T15:15:47;24.00;94.40
52187;DHT22;38161;53.020;6.598;2023-06-26T15:18:13;24.00;94.50
52187;DHT22;38161;53.020;6.598;2023-06-26T15:20:51;23.90;94.60
52187;DHT22;38161;53.020;6.598;2023-06-26T15:23:20;23.80;94.70
52187;DHT22;38161;53.020;6.598;2023-06-26T15:25:46;23.70;94.40
52187;DHT22;38161;53.020;6.598;2023-06-26T15:28:12;23.50;94.80
52187;DHT22;38161;53.020;6.598;2023-06-26T15:30:38;23.40;94.90
52187;DHT22;38161;53.020;6.598;2023-06-26T15:33:04;23.30;95.10
52187;DHT22;38161;53.020;6.598;2023-06-26T15:35:32;23.30;95.20
52187;DHT22;38161;53.020;6.598;2023-06-26T15:37:57;23.20;95.30
52187;DHT22;38161;53.020;6.598;2023-06-26T15:40:23;23.20;95.50
52187;DHT22;38161;53.020;6.598;2023-06-26T15:42:50;23.20;95.40
52187;DHT22;38161;53.020;6.598;2023-06-26T15:45:18;23.20;95.40
52187;DHT22;38161;53.020;6.598;2023-06-26T15:47:46;23.20;95.20
52187;DHT22;38161;53.020;6.598;2023-06-26T15:50:13;23.10;95.10